createdAt,value
2023-05-12T00:00:03.119Z,29.16
2023-05-12T00:02:04.793Z,29.20
2023-05-12T00:04:07.036Z,29.17
2023-05-12T00:06:08.776Z,28.97
2023-05-12T00:08:10.336Z,29.10
2023-05-12T00:10:12.267Z,29.03
2023-05-12T00:12:13.865Z,29.09
2023-05-12T00:14:15.853Z,28.95
2023-05-12T00:16:18.775Z,28.53
2023-05-12T00:18:20.512Z,28.58
2023-05-12T00:20:22.606Z,29.00
2023-05-12T00:22:24.303Z,28.84
2023-05-12T00:24:25.974Z,29.08
2023-05-12T00:26:27.638Z,29.00
2023-05-12T00:28:29.197Z,29.06
2023-05-12T00:30:30.775Z,29.05
2023-05-12T00:32:32.287Z,28.81
2023-05-12T00:34:33.841Z,28.51
2023-05-12T00:36:35.277Z,28.93
2023-05-12T00:38:37.389Z,28.93
2023-05-12T00:40:38.941Z,28.46
2023-05-12T00:42:40.458Z,28.68
2023-05-12T00:44:41.946Z,28.52
2023-05-12T00:46:43.376Z,28.95
2023-05-12T00:48:45.405Z,28.80
2023-05-12T00:50:46.953Z,28.79
2023-05-12T00:52:48.906Z,28.74
2023-05-12T00:54:50.630Z,28.51
2023-05-12T00:56:52.084Z,28.87
2023-05-12T00:58:53.687Z,28.84
2023-05-12T01:00:55.509Z,28.84
2023-05-12T01:03:00.341Z,28.70
2023-05-12T01:05:02.554Z,28.51
2023-05-12T01:07:07.554Z,28.83
2023-05-12T01:09:09.409Z,28.51
2023-05-12T01:11:10.830Z,28.33
2023-05-12T01:13:12.617Z,28.92
2023-05-12T01:15:14.290Z,28.65
2023-05-12T01:17:19.027Z,28.69
2023-05-12T01:19:29.677Z,28.50
2023-05-12T01:21:31.946Z,28.50
2023-05-12T01:23:39.774Z,28.61
2023-05-12T01:25:41.550Z,28.80
2023-05-12T01:27:43.109Z,28.62
2023-05-12T01:29:46.466Z,28.51
2023-05-12T01:31:49.118Z,28.68
2023-05-12T01:33:50.684Z,28.55
2023-05-12T01:35:52.158Z,28.58
2023-05-12T01:37:53.574Z,28.73
2023-05-12T01:39:55.000Z,28.65
2023-05-12T01:41:56.503Z,28.62
2023-05-12T01:43:57.936Z,28.81
2023-05-12T01:45:59.456Z,28.61
2023-05-12T01:48:01.020Z,28.34
2023-05-12T01:50:02.531Z,28.46
2023-05-12T01:52:04.140Z,28.63
2023-05-12T01:54:05.679Z,28.20
2023-05-12T01:56:07.271Z,28.53
2023-05-12T01:58:08.929Z,28.35
2023-05-12T02:00:10.984Z,28.61
2023-05-12T02:02:12.652Z,28.47
2023-05-12T02:04:14.266Z,28.62
2023-05-12T02:06:15.910Z,28.31
2023-05-12T02:08:17.454Z,28.59
2023-05-12T02:10:19.072Z,28.38
2023-05-12T02:12:20.786Z,28.52
2023-05-12T02:14:22.292Z,28.18
2023-05-12T02:16:24.136Z,28.59
2023-05-12T02:18:25.647Z,28.48
2023-05-12T02:20:29.282Z,28.37
2023-05-12T02:22:30.850Z,28.54
2023-05-12T02:24:32.243Z,28.20
2023-05-12T02:26:33.693Z,28.22
2023-05-12T02:28:35.147Z,28.33
2023-05-12T02:30:37.000Z,28.46
2023-05-12T02:32:38.484Z,28.59
2023-05-12T02:34:40.078Z,28.50
2023-05-12T02:36:41.673Z,28.47
2023-05-12T02:38:43.120Z,28.63
2023-05-12T02:40:46.078Z,28.40
2023-05-12T02:42:47.613Z,28.20
2023-05-12T02:44:49.130Z,28.59
2023-05-12T02:46:50.701Z,28.24
2023-05-12T02:48:52.112Z,28.28
2023-05-12T02:50:53.550Z,28.65
2023-05-12T02:52:54.989Z,28.49
2023-05-12T02:54:56.971Z,28.51
2023-05-12T02:56:59.810Z,28.53
2023-05-12T02:59:01.470Z,28.51
2023-05-12T03:01:09.823Z,28.57
2023-05-12T03:03:13.015Z,28.47
2023-05-12T03:05:14.574Z,28.49
2023-05-12T03:07:16.182Z,28.30
2023-05-12T03:09:17.596Z,28.13
2023-05-12T03:11:19.067Z,28.29
2023-05-12T03:13:20.547Z,28.52
2023-05-12T03:15:22.232Z,28.63
2023-05-12T03:17:23.960Z,28.46
2023-05-12T03:19:25.605Z,28.56
2023-05-12T03:21:28.536Z,28.37
2023-05-12T03:23:30.770Z,28.36
2023-05-12T03:25:32.354Z,28.60
2023-05-12T03:27:33.919Z,28.28
2023-05-12T03:29:35.385Z,28.26
2023-05-12T03:31:36.979Z,28.50
2023-05-12T03:33:38.371Z,28.58
2023-05-12T03:35:39.950Z,28.22
2023-05-12T03:37:41.472Z,28.51
2023-05-12T03:39:43.173Z,28.58
2023-05-12T03:41:44.671Z,28.37
2023-05-12T03:43:46.562Z,28.38
2023-05-12T03:45:48.041Z,28.41
2023-05-12T03:47:49.719Z,28.21
2023-05-12T03:49:51.328Z,28.27
2023-05-12T03:51:52.914Z,28.54
2023-05-12T03:53:54.305Z,28.46
2023-05-12T03:55:55.726Z,28.36
2023-05-12T03:57:57.215Z,28.51
2023-05-12T03:59:58.803Z,28.03
2023-05-12T04:02:00.536Z,28.29
2023-05-12T04:04:02.079Z,28.60
2023-05-12T04:06:04.233Z,28.43
2023-05-12T04:08:05.816Z,28.18
2023-05-12T04:10:07.885Z,28.39
2023-05-12T04:12:09.985Z,28.35
2023-05-12T04:14:11.457Z,28.40
2023-05-12T04:16:13.022Z,28.23
2023-05-12T04:18:14.679Z,28.42
2023-05-12T04:20:16.221Z,28.29
2023-05-12T04:22:17.758Z,28.42
2023-05-12T04:24:19.391Z,28.34
2023-05-12T04:26:22.054Z,28.18
2023-05-12T04:28:23.592Z,28.44
2023-05-12T04:30:25.278Z,28.29
2023-05-12T04:32:26.829Z,28.20
2023-05-12T04:34:28.414Z,28.26
2023-05-12T04:36:29.915Z,28.11
2023-05-12T04:38:31.520Z,28.26
2023-05-12T04:40:34.892Z,28.00
2023-05-12T04:42:36.663Z,27.88
2023-05-12T04:44:38.167Z,27.64
2023-05-12T04:46:39.617Z,27.88
2023-05-12T04:48:43.174Z,27.81
2023-05-12T04:50:44.647Z,27.84
2023-05-12T04:52:46.138Z,28.13
2023-05-12T04:54:47.617Z,28.10
2023-05-12T04:56:49.182Z,27.84
2023-05-12T04:58:50.867Z,27.73
2023-05-12T05:00:53.000Z,27.94
2023-05-12T05:02:54.586Z,27.88
2023-05-12T05:04:56.236Z,27.70
2023-05-12T05:06:57.693Z,27.65
2023-05-12T05:08:59.149Z,27.71
2023-05-12T05:11:00.816Z,27.70
2023-05-12T05:13:02.228Z,27.66
2023-05-12T05:15:04.085Z,27.55
2023-05-12T05:17:07.829Z,27.86
2023-05-12T05:19:20.017Z,27.71
2023-05-12T05:21:26.923Z,27.86
2023-05-12T05:23:28.376Z,27.67
2023-05-12T05:25:29.839Z,27.39
2023-05-12T05:27:31.328Z,27.71
2023-05-12T05:29:32.960Z,27.67
2023-05-12T05:31:34.498Z,27.37
2023-05-12T05:33:36.109Z,27.71
2023-05-12T05:35:37.700Z,27.62
2023-05-12T05:37:39.118Z,27.74
2023-05-12T05:39:40.494Z,27.75
2023-05-12T05:41:42.074Z,27.64
2023-05-12T05:43:43.751Z,27.67
2023-05-12T05:45:45.339Z,27.44
2023-05-12T05:47:49.461Z,27.62
2023-05-12T05:49:50.943Z,27.23
2023-05-12T05:51:52.509Z,27.41
2023-05-12T05:53:53.951Z,27.65
2023-05-12T05:55:55.543Z,27.21
2023-05-12T05:57:57.000Z,27.45
2023-05-12T05:59:58.729Z,27.40
2023-05-12T06:02:00.389Z,27.47
2023-05-12T06:04:02.145Z,27.47
2023-05-12T06:06:04.397Z,27.57
2023-05-12T06:08:08.878Z,27.45
2023-05-12T06:10:10.471Z,27.62
2023-05-12T06:12:11.964Z,27.38
2023-05-12T06:14:13.453Z,27.32
2023-05-12T06:16:14.982Z,27.58
2023-05-12T06:18:16.568Z,27.35
2023-05-12T06:20:18.340Z,27.14
2023-05-12T06:22:19.798Z,27.27
2023-05-12T06:24:21.622Z,27.35
2023-05-12T06:26:23.174Z,27.35
2023-05-12T06:28:24.631Z,27.52
2023-05-12T06:30:26.897Z,27.38
2023-05-12T06:32:28.413Z,27.37
2023-05-12T06:34:29.882Z,27.50
2023-05-12T06:36:31.377Z,27.18
2023-05-12T06:38:32.907Z,27.11
2023-05-12T06:40:34.302Z,27.12
2023-05-12T06:42:35.838Z,27.46
2023-05-12T06:44:38.505Z,27.12
2023-05-12T06:46:44.261Z,27.40
2023-05-12T06:48:46.181Z,27.05
2023-05-12T06:50:47.644Z,27.38
2023-05-12T06:52:49.108Z,27.50
2023-05-12T06:54:50.825Z,27.25
2023-05-12T06:56:52.365Z,27.12
2023-05-12T06:58:54.379Z,27.12
2023-05-12T07:00:55.952Z,27.46
2023-05-12T07:02:57.448Z,27.13
2023-05-12T07:04:58.986Z,27.49
2023-05-12T07:07:00.767Z,27.74
2023-05-12T07:09:02.688Z,27.36
2023-05-12T07:11:04.145Z,27.21
2023-05-12T07:13:05.763Z,27.48
2023-05-12T07:15:08.353Z,27.30
2023-05-12T07:17:09.874Z,27.36
2023-05-12T07:19:11.524Z,27.20
2023-05-12T07:21:13.290Z,27.19
2023-05-12T07:23:14.741Z,26.80
2023-05-12T07:25:16.432Z,27.03
2023-05-12T07:27:17.850Z,27.21
2023-05-12T07:29:19.318Z,27.10
2023-05-12T07:31:22.975Z,26.74
2023-05-12T07:33:24.783Z,26.90
2023-05-12T07:35:26.226Z,26.41
2023-05-12T07:37:27.673Z,26.70
2023-05-12T07:39:31.101Z,26.99
2023-05-12T07:41:34.393Z,26.78
2023-05-12T07:43:36.342Z,26.61
2023-05-12T07:45:37.870Z,27.02
2023-05-12T07:47:39.514Z,27.05
2023-05-12T07:49:41.046Z,27.02
2023-05-12T07:51:42.542Z,26.93
2023-05-12T07:53:43.939Z,26.97
2023-05-12T07:55:45.416Z,26.82
2023-05-12T07:57:47.136Z,27.14
2023-05-12T07:59:49.246Z,27.01
2023-05-12T08:01:50.832Z,27.14
2023-05-12T08:03:52.348Z,27.88
2023-05-12T08:05:54.069Z,27.46
2023-05-12T08:07:55.617Z,28.00
2023-05-12T08:09:57.063Z,28.34
2023-05-12T08:11:58.484Z,28.18
2023-05-12T08:14:00.447Z,27.94
2023-05-12T08:16:02.006Z,28.13
2023-05-12T08:18:03.620Z,28.01
2023-05-12T08:20:05.451Z,28.26
2023-05-12T08:22:07.030Z,27.99
2023-05-12T08:24:08.752Z,27.88
2023-05-12T08:26:10.381Z,28.47
2023-05-12T08:28:12.909Z,28.30
2023-05-12T08:30:14.748Z,28.32
2023-05-12T08:32:16.697Z,28.51
2023-05-12T08:34:18.247Z,28.47
2023-05-12T08:36:19.962Z,28.43
2023-05-12T08:38:22.005Z,28.70
2023-05-12T08:40:24.372Z,28.66
2023-05-12T08:42:34.615Z,28.67
2023-05-12T08:44:39.231Z,28.87
2023-05-12T08:46:40.940Z,29.21
2023-05-12T08:48:45.153Z,29.55
2023-05-12T08:50:49.936Z,29.10
2023-05-12T08:52:51.961Z,29.28
2023-05-12T08:54:56.454Z,29.63
2023-05-12T08:59:03.401Z,30.13
2023-05-12T09:01:06.178Z,30.29
2023-05-12T09:03:07.974Z,30.37
2023-05-12T09:05:10.296Z,30.20
2023-05-12T09:07:12.172Z,30.03
2023-05-12T09:09:15.515Z,30.20
2023-05-12T09:11:17.899Z,30.42
2023-05-12T09:13:19.589Z,30.54
2023-05-12T09:15:26.013Z,30.73
2023-05-12T09:17:27.615Z,30.67
2023-05-12T09:19:29.396Z,30.80
2023-05-12T09:21:30.964Z,30.91
2023-05-12T09:23:32.432Z,31.03
2023-05-12T09:25:33.920Z,31.46
2023-05-12T09:27:35.373Z,31.48
2023-05-12T09:31:53.421Z,31.97
2023-05-12T09:33:55.499Z,32.02
2023-05-12T09:35:59.978Z,32.11
2023-05-12T09:38:05.636Z,32.18
2023-05-12T09:40:08.410Z,32.48
2023-05-12T09:42:13.024Z,32.32
2023-05-12T09:44:16.455Z,32.62
2023-05-12T09:46:17.993Z,32.94
2023-05-12T09:48:19.485Z,32.73
2023-05-12T09:50:22.718Z,32.80
2023-05-12T09:52:24.288Z,33.08
2023-05-12T09:54:29.561Z,32.87
2023-05-12T09:56:35.242Z,32.64
2023-05-12T09:58:36.968Z,33.44
2023-05-12T10:02:49.418Z,33.29
2023-05-12T10:04:53.242Z,33.07
2023-05-12T10:06:55.256Z,33.33
2023-05-12T10:09:06.133Z,33.34
2023-05-12T10:11:08.777Z,33.31
2023-05-12T10:13:14.173Z,33.10
2023-05-12T10:15:17.464Z,33.43
2023-05-12T10:17:23.172Z,33.27
2023-05-12T10:19:25.831Z,33.11
2023-05-12T10:21:27.544Z,33.10
2023-05-12T10:23:29.122Z,33.18
2023-05-12T10:25:30.803Z,33.26
2023-05-12T10:27:33.070Z,33.56
2023-05-12T10:29:35.160Z,33.29
2023-05-12T10:31:37.336Z,34.13
2023-05-12T10:33:38.875Z,33.58
2023-05-12T10:35:42.739Z,33.52
2023-05-12T10:37:46.369Z,33.73
2023-05-12T10:39:52.218Z,33.25
2023-05-12T10:42:01.019Z,33.35
2023-05-12T10:44:02.669Z,33.51
2023-05-12T10:46:07.512Z,33.15
2023-05-12T10:48:09.552Z,33.39
2023-05-12T10:50:14.110Z,33.17
2023-05-12T10:52:19.781Z,33.27
2023-05-12T10:54:24.048Z,33.44
2023-05-12T10:56:27.308Z,33.39
2023-05-12T10:58:29.214Z,33.04
2023-05-12T11:00:31.379Z,33.69
2023-05-12T11:02:35.098Z,33.42
2023-05-12T11:04:50.411Z,33.77
2023-05-12T11:07:01.075Z,33.73
2023-05-12T11:09:05.139Z,33.62
2023-05-12T11:11:08.923Z,33.43
2023-05-12T11:13:11.015Z,33.75
2023-05-12T11:15:13.233Z,33.82
2023-05-12T11:17:15.530Z,33.76
2023-05-12T11:19:18.336Z,33.52
2023-05-12T11:21:19.833Z,33.76
2023-05-12T11:23:29.170Z,33.63
2023-05-12T11:25:30.782Z,33.71
2023-05-12T11:27:32.502Z,33.36
2023-05-12T11:29:35.059Z,33.54
2023-05-12T11:31:36.681Z,33.74
2023-05-12T11:33:38.098Z,33.42
2023-05-12T11:35:39.486Z,33.48
2023-05-12T11:37:42.076Z,33.55
2023-05-12T11:39:43.591Z,33.53
2023-05-12T11:41:45.131Z,33.60
2023-05-12T11:43:46.639Z,33.97
2023-05-12T11:45:48.797Z,33.86
2023-05-12T11:47:50.806Z,33.59
2023-05-12T11:49:54.796Z,33.94
2023-05-12T11:51:57.397Z,33.79
2023-05-12T11:53:58.818Z,33.70
2023-05-12T11:56:00.378Z,33.75
2023-05-12T11:58:02.951Z,33.78
2023-05-12T12:00:07.021Z,33.58
2023-05-12T12:02:19.181Z,33.67
2023-05-12T12:04:31.037Z,33.80
2023-05-12T12:06:42.759Z,33.62
2023-05-12T12:08:54.041Z,33.50
2023-05-12T12:10:55.629Z,33.54
2023-05-12T12:12:57.195Z,33.96
2023-05-12T12:15:00.277Z,34.05
2023-05-12T12:17:02.442Z,33.86
2023-05-12T12:19:04.084Z,33.84
2023-05-12T12:21:05.552Z,34.06
2023-05-12T12:23:07.021Z,33.81
2023-05-12T12:25:08.744Z,33.65
2023-05-12T12:27:10.326Z,33.92
2023-05-12T12:29:11.744Z,34.17
2023-05-12T12:31:14.584Z,34.14
2023-05-12T12:33:18.722Z,34.31
2023-05-12T12:35:22.389Z,34.17
2023-05-12T12:37:24.374Z,34.20
2023-05-12T12:39:25.904Z,34.27
2023-05-12T12:41:27.496Z,34.19
2023-05-12T12:43:29.382Z,33.99
2023-05-12T12:45:30.903Z,33.96
2023-05-12T12:47:32.602Z,34.06
2023-05-12T12:49:34.198Z,34.02
2023-05-12T12:51:45.157Z,34.22
2023-05-12T12:53:47.956Z,34.05
2023-05-12T12:55:49.566Z,34.19
2023-05-12T12:57:51.016Z,34.07
2023-05-12T12:59:52.553Z,34.11
2023-05-12T13:01:54.537Z,34.16
2023-05-12T13:03:56.115Z,34.17
2023-05-12T13:05:57.591Z,34.26
2023-05-12T13:07:59.097Z,34.00
2023-05-12T13:10:00.568Z,34.34
2023-05-12T13:12:02.379Z,34.51
2023-05-12T13:14:04.973Z,34.25
2023-05-12T13:16:09.187Z,34.17
2023-05-12T13:18:10.687Z,34.25
2023-05-12T13:20:14.099Z,34.17
2023-05-12T13:22:15.681Z,34.47
2023-05-12T13:24:17.212Z,34.21
2023-05-12T13:26:18.724Z,34.06
2023-05-12T13:28:20.220Z,34.33
2023-05-12T13:30:24.964Z,34.20
2023-05-12T13:32:26.516Z,34.32
2023-05-12T13:34:28.053Z,34.05
2023-05-12T13:36:29.785Z,34.23
2023-05-12T13:38:32.218Z,34.15
2023-05-12T13:40:34.018Z,34.16
2023-05-12T13:42:35.710Z,34.04
2023-05-12T13:44:37.809Z,34.08
2023-05-12T13:46:39.301Z,33.92
2023-05-12T13:48:40.819Z,34.28
2023-05-12T13:50:42.417Z,34.92
2023-05-12T13:52:44.169Z,34.27
2023-05-12T13:54:45.644Z,34.32
2023-05-12T13:56:47.226Z,34.33
2023-05-12T13:58:48.925Z,34.28
2023-05-12T14:00:50.399Z,34.25
2023-05-12T14:02:52.304Z,34.10
2023-05-12T14:04:53.786Z,34.04
2023-05-12T14:06:55.479Z,34.07
2023-05-12T14:08:57.016Z,34.16
2023-05-12T14:10:58.811Z,34.12
2023-05-12T14:13:00.530Z,34.25
2023-05-12T14:15:15.934Z,34.23
2023-05-12T14:17:23.092Z,34.43
2023-05-12T14:19:24.626Z,34.22
2023-05-12T14:21:26.504Z,34.38
2023-05-12T14:23:28.277Z,34.12
2023-05-12T14:25:30.887Z,34.26
2023-05-12T14:27:32.422Z,34.04
2023-05-12T14:29:33.901Z,34.09
2023-05-12T14:31:35.542Z,34.08
2023-05-12T14:33:37.372Z,34.10
2023-05-12T14:35:38.816Z,34.25
2023-05-12T14:37:40.489Z,34.01
2023-05-12T14:39:41.896Z,34.06
2023-05-12T14:41:43.364Z,34.36
2023-05-12T14:43:44.881Z,34.21
2023-05-12T14:45:54.676Z,34.25
2023-05-12T14:47:56.524Z,34.37
2023-05-12T14:49:58.010Z,34.50
2023-05-12T14:51:59.447Z,34.73
2023-05-12T14:54:01.048Z,34.70
2023-05-12T14:56:02.594Z,34.32
2023-05-12T14:58:04.071Z,34.45
2023-05-12T15:00:07.002Z,34.65
2023-05-12T15:02:08.725Z,34.57
2023-05-12T15:04:10.346Z,34.72
2023-05-12T15:06:12.059Z,34.79
2023-05-12T15:08:13.545Z,34.68
2023-05-12T15:10:15.060Z,34.58
2023-05-12T15:12:17.669Z,34.50
2023-05-12T15:14:19.746Z,34.82
2023-05-12T15:16:21.241Z,34.75
2023-05-12T15:18:22.809Z,34.71
2023-05-12T15:20:24.297Z,34.68
2023-05-12T15:22:25.879Z,35.04
2023-05-12T15:24:27.433Z,35.15
2023-05-12T15:26:33.770Z,34.95
2023-05-12T15:28:36.759Z,35.18
2023-05-12T15:30:38.314Z,35.36
2023-05-12T15:32:41.150Z,35.16
2023-05-12T15:34:42.690Z,35.50
2023-05-12T15:36:45.597Z,35.45
2023-05-12T15:38:47.231Z,35.70
2023-05-12T15:40:49.080Z,35.47
2023-05-12T15:42:50.509Z,35.31
2023-05-12T15:44:52.628Z,35.25
2023-05-12T15:46:54.392Z,36.99
2023-05-12T15:48:55.860Z,37.16
2023-05-12T15:50:57.404Z,36.81
2023-05-12T15:52:59.082Z,37.11
2023-05-12T15:55:01.008Z,36.42
2023-05-12T15:57:02.582Z,36.04
2023-05-12T15:59:05.232Z,35.29
2023-05-12T16:01:06.789Z,35.24
2023-05-12T16:03:09.090Z,35.23
2023-05-12T16:05:10.708Z,34.86
2023-05-12T16:07:12.176Z,35.11
2023-05-12T16:09:13.743Z,35.11
2023-05-12T16:11:15.341Z,35.02
2023-05-12T16:13:16.798Z,35.33
2023-05-12T16:15:19.026Z,35.15
2023-05-12T16:17:22.148Z,35.15
2023-05-12T16:19:24.417Z,34.99
2023-05-12T16:21:26.029Z,35.04
2023-05-12T16:23:27.747Z,34.89
2023-05-12T16:25:30.351Z,34.54
2023-05-12T16:27:33.607Z,34.79
2023-05-12T16:29:35.094Z,34.33
2023-05-12T16:31:36.651Z,34.35
2023-05-12T16:33:38.231Z,34.25
2023-05-12T16:35:39.737Z,34.25
2023-05-12T16:37:41.483Z,34.48
2023-05-12T16:39:43.049Z,33.93
2023-05-12T16:41:44.942Z,33.95
2023-05-12T16:43:46.493Z,33.97
2023-05-12T16:45:56.787Z,33.95
2023-05-12T16:47:58.422Z,33.87
2023-05-12T16:49:59.931Z,33.63
2023-05-12T16:52:01.715Z,33.62
2023-05-12T16:54:03.316Z,33.27
2023-05-12T16:56:04.957Z,33.19
2023-05-12T16:58:07.294Z,33.77
2023-05-12T17:00:09.653Z,33.67
2023-05-12T17:02:11.322Z,33.45
2023-05-12T17:04:12.926Z,33.21
2023-05-12T17:06:14.463Z,33.22
2023-05-12T17:08:18.276Z,32.91
2023-05-12T17:10:20.359Z,32.72
2023-05-12T17:12:22.239Z,32.70
2023-05-12T17:14:23.657Z,32.60
2023-05-12T17:16:25.107Z,32.35
2023-05-12T17:18:26.675Z,32.47
2023-05-12T17:20:28.616Z,32.26
2023-05-12T17:22:32.047Z,32.19
2023-05-12T17:24:33.506Z,32.24
2023-05-12T17:26:35.259Z,32.12
2023-05-12T17:28:36.805Z,32.13
2023-05-12T17:30:38.347Z,32.24
2023-05-12T17:32:39.872Z,32.03
2023-05-12T17:34:41.690Z,32.04
2023-05-12T17:36:43.392Z,32.16
2023-05-12T17:38:44.934Z,32.27
2023-05-12T17:40:46.740Z,31.95
2023-05-12T17:42:49.869Z,31.95
2023-05-12T17:44:51.486Z,32.07
2023-05-12T17:46:53.101Z,32.14
2023-05-12T17:48:54.629Z,32.31
2023-05-12T17:50:56.423Z,31.82
2023-05-12T17:52:58.228Z,32.20
2023-05-12T17:54:59.747Z,31.74
2023-05-12T17:57:02.081Z,31.66
2023-05-12T17:59:04.848Z,31.33
2023-05-12T18:01:06.545Z,31.75
2023-05-12T18:03:08.446Z,31.75
2023-05-12T18:05:10.198Z,31.25
2023-05-12T18:07:11.627Z,31.23
2023-05-12T18:09:13.685Z,30.89
2023-05-12T18:11:15.139Z,30.98
2023-05-12T18:13:16.860Z,30.90
2023-05-12T18:15:19.920Z,30.83
2023-05-12T18:17:21.850Z,30.72
2023-05-12T18:19:23.905Z,30.81
2023-05-12T18:21:25.808Z,30.71
2023-05-12T18:23:27.420Z,30.65
2023-05-12T18:25:28.933Z,30.73
2023-05-12T18:27:30.469Z,30.64
2023-05-12T18:29:31.913Z,30.57
2023-05-12T18:31:34.344Z,30.39
2023-05-12T18:33:35.980Z,30.58
2023-05-12T18:35:37.585Z,30.42
2023-05-12T18:37:39.046Z,30.54
2023-05-12T18:39:40.748Z,30.58
2023-05-12T18:41:42.225Z,30.45
2023-05-12T18:43:44.757Z,30.35
2023-05-12T18:45:46.489Z,30.37
2023-05-12T18:47:48.107Z,30.28
2023-05-12T18:49:49.747Z,30.40
2023-05-12T18:51:51.352Z,30.16
2023-05-12T18:53:52.900Z,30.46
2023-05-12T18:55:54.588Z,30.31
2023-05-12T18:57:56.346Z,30.36
2023-05-12T18:59:57.790Z,30.51
2023-05-12T19:01:59.281Z,30.27
2023-05-12T19:04:00.840Z,30.36
2023-05-12T19:06:02.348Z,30.06
2023-05-12T19:08:04.136Z,30.36
2023-05-12T19:10:06.119Z,30.38
2023-05-12T19:12:10.672Z,30.09
2023-05-12T19:14:12.960Z,30.09
2023-05-12T19:16:14.414Z,30.08
2023-05-12T19:18:17.099Z,29.84
2023-05-12T19:20:18.558Z,29.93
2023-05-12T19:22:20.734Z,30.12
2023-05-12T19:24:24.395Z,30.35
2023-05-12T19:26:28.050Z,30.10
2023-05-12T19:28:29.605Z,30.38
2023-05-12T19:30:31.066Z,30.22
2023-05-12T19:32:33.087Z,30.27
2023-05-12T19:34:34.712Z,30.40
2023-05-12T19:36:36.134Z,30.14
2023-05-12T19:38:37.811Z,30.22
2023-05-12T19:40:39.478Z,30.33
2023-05-12T19:42:42.243Z,30.28
2023-05-12T19:44:43.933Z,30.60
2023-05-12T19:46:46.897Z,30.33
2023-05-12T19:48:48.467Z,30.18
2023-05-12T19:50:50.274Z,30.29
2023-05-12T19:52:51.880Z,30.34
2023-05-12T19:54:53.534Z,30.57
2023-05-12T19:56:55.145Z,30.52
2023-05-12T19:58:56.646Z,30.44
2023-05-12T20:00:58.303Z,30.39
2023-05-12T20:02:59.923Z,30.63
2023-05-12T20:05:01.661Z,30.13
2023-05-12T20:07:03.476Z,30.50
2023-05-12T20:09:04.914Z,30.41
2023-05-12T20:11:07.221Z,30.10
2023-05-12T20:13:08.894Z,30.47
2023-05-12T20:15:11.381Z,30.58
2023-05-12T20:17:12.974Z,30.50
2023-05-12T20:19:14.624Z,30.23
2023-05-12T20:21:16.550Z,30.39
2023-05-12T20:23:18.288Z,30.23
2023-05-12T20:25:20.107Z,30.27
2023-05-12T20:27:22.018Z,30.54
2023-05-12T20:29:25.431Z,30.34
2023-05-12T20:31:27.535Z,30.40
2023-05-12T20:33:29.061Z,30.30
2023-05-12T20:35:30.605Z,30.73
2023-05-12T20:37:32.157Z,30.40
2023-05-12T20:39:33.825Z,30.50
2023-05-12T20:41:35.614Z,30.73
2023-05-12T20:43:37.314Z,30.50
2023-05-12T20:45:38.813Z,30.69
2023-05-12T20:47:40.775Z,30.26
2023-05-12T20:49:42.669Z,30.54
2023-05-12T20:51:44.124Z,30.52
2023-05-12T20:53:45.698Z,30.28
2023-05-12T20:55:47.089Z,30.61
2023-05-12T20:57:48.520Z,30.71
2023-05-12T20:59:52.506Z,30.63
2023-05-12T21:01:54.012Z,30.74
2023-05-12T21:03:55.598Z,30.54
2023-05-12T21:05:57.181Z,30.81
2023-05-12T21:07:58.956Z,30.71
2023-05-12T21:10:00.792Z,30.57
2023-05-12T21:12:02.548Z,30.77
2023-05-12T21:14:04.968Z,30.78
2023-05-12T21:16:06.483Z,30.32
2023-05-12T21:18:09.015Z,30.57
2023-05-12T21:20:11.565Z,30.36
2023-05-12T21:22:13.070Z,30.42
2023-05-12T21:24:14.542Z,30.80
2023-05-12T21:26:17.763Z,30.78
2023-05-12T21:28:19.379Z,30.61
2023-05-12T21:30:21.548Z,30.54
2023-05-12T21:32:23.237Z,30.48
2023-05-12T21:34:24.828Z,30.39
2023-05-12T21:36:27.048Z,30.64
2023-05-12T21:38:30.586Z,30.45
2023-05-12T21:40:32.024Z,30.50
2023-05-12T21:42:33.692Z,30.70
2023-05-12T21:44:35.451Z,30.37
2023-05-12T21:46:37.332Z,30.38
2023-05-12T21:48:38.827Z,30.65
2023-05-12T21:50:40.900Z,30.66
2023-05-12T21:52:42.305Z,30.60
2023-05-12T21:54:43.926Z,30.39
2023-05-12T21:56:45.490Z,30.70
2023-05-12T21:58:47.281Z,30.53
2023-05-12T22:00:49.622Z,30.46
2023-05-12T22:02:51.793Z,30.68
2023-05-12T22:04:53.369Z,30.43
2023-05-12T22:06:54.826Z,30.63
2023-05-12T22:08:56.571Z,30.72
2023-05-12T22:10:58.056Z,30.54
2023-05-12T22:12:59.694Z,30.78
2023-05-12T22:15:01.668Z,30.77
2023-05-12T22:17:03.357Z,30.61
2023-05-12T22:19:05.028Z,30.83
2023-05-12T22:21:06.960Z,30.43
2023-05-12T22:23:08.422Z,30.62
2023-05-12T22:25:09.998Z,30.80
2023-05-12T22:27:11.587Z,30.53
2023-05-12T22:29:13.093Z,30.74
2023-05-12T22:31:14.986Z,30.36
2023-05-12T22:33:16.467Z,30.65
2023-05-12T22:35:17.981Z,30.71
2023-05-12T22:37:19.433Z,30.83
2023-05-12T22:39:20.942Z,30.42
2023-05-12T22:41:22.353Z,30.60
2023-05-12T22:43:24.175Z,30.47
2023-05-12T22:45:25.922Z,30.54
2023-05-12T22:47:27.461Z,30.75
2023-05-12T22:49:28.941Z,30.52
2023-05-12T22:51:31.689Z,30.49
2023-05-12T22:53:35.730Z,30.81
2023-05-12T22:55:37.273Z,30.71
2023-05-12T22:57:40.764Z,30.46
2023-05-12T22:59:42.259Z,30.79
2023-05-12T23:01:44.542Z,30.60
2023-05-12T23:03:46.278Z,30.47
2023-05-12T23:05:47.718Z,30.53
2023-05-12T23:07:49.339Z,30.65
2023-05-12T23:09:50.780Z,30.65
2023-05-12T23:11:52.176Z,30.87
2023-05-12T23:13:53.740Z,30.79
2023-05-12T23:15:55.406Z,30.69
2023-05-12T23:17:56.963Z,30.57
2023-05-12T23:19:58.489Z,30.94
2023-05-12T23:22:00.365Z,30.77
2023-05-12T23:24:01.812Z,30.73
2023-05-12T23:26:03.422Z,30.86
2023-05-12T23:28:05.996Z,30.89
2023-05-12T23:30:07.938Z,30.91
2023-05-12T23:32:09.704Z,31.10
2023-05-12T23:34:11.299Z,31.04
2023-05-12T23:36:13.664Z,31.14
2023-05-12T23:38:15.243Z,31.12
2023-05-12T23:40:16.683Z,31.32
2023-05-12T23:42:18.124Z,31.38
2023-05-12T23:44:19.647Z,31.36
2023-05-12T23:46:21.298Z,31.39
2023-05-12T23:48:22.972Z,31.38
2023-05-12T23:50:27.503Z,31.73
2023-05-12T23:52:28.931Z,31.23
2023-05-12T23:54:30.381Z,31.69
2023-05-12T23:56:31.916Z,31.56
2023-05-12T23:58:34.071Z,31.75
